Etusivu
METAR-TAF:

METAR-TAF

Lentoasemat :

Ulukhaktok/Holmanin lentoasema

Ulukhaktok, Luoteisterritoriot, Kanada

Leveyspiiri: 70-46N, Pituuspiiri: 117-48W, korkeus merenpinnasta: 36 m

Tämänhetkinen sää

Tämä raportti tehtiin 12 minuuttia sitten, kello 15.00 UTC
Tuuli 9 kn pohjoisen/luoteesta
Lämpötila 4°C
Kosteus 75%
Ilmanpaine 1013 hPa
Näkyvyys: 24.1 km
Pilvistä 1500 ft:n korkeudessa

METAR: CYHI 121500Z 34009KT 15SM OVC015 04/00 A2990 RMK SC8 CIG RAG SLP129

Aika: 09:12 (15:12 UTC)

Sääennuste

Tämä raportti tehtiin 20 tuntia ja 32 minuuttia sitten, kello 18.40 UTC
Ennuste voimassa 11. päivästä klo 19 UTC - 11. päivään klo 24 UTC
Tuuli 10 kn pohjoisen/luoteesta
Näkyvyys: 10 km
Hajonneita pilviä 2000 ft:n korkeudessa
Ajoittain
11. päivästä klo 19 UTC - 11. päivään klo 24 UTC
Hajonneita pilviä 3000 ft:n korkeudessa

TAF: CYHI 111840Z 1119/1124 33010KT P6SM BKN020 TEMPO 1119/1124 BKN030 RMK NXT FCST BY 121600Z

Säähavainnot ja -ennusteet yli 4000 lentoasemalta (METAR- ja TAF-raportit).

Käytössä olevat sääasemat on merkitty karttaan keltaisilla ja punaisilla pisteillä.

Aseta hiiri pisteen päälle nähdäksesi sääaseman nimen.

Klikkaa sitten nähdäksesi säähavainnot ja -ennusteet.

Kartan vaihtaminen: klikkaa mustalla rastilla varustettuja vihreitä pisteitä, niin voit zoomata sisään; viivalla varustettua vihreää pistettä, niin voit zoomata ulos tai vihreitä nuolia, niin pääset viereisille kartoille.


METAR-TAF: